Hoppa till innehåll

METAR väder och rapporter - ESGG

Nedan listas information från vald flygplats. Andra METARs finns längre ned på sidan. Kontakta oss om någon saknas eller skriv in egen ICAO-kod.

Andra intressanta METARs

Klicka på önskad rubrik nedan för att visa nuvarande väder för den platsen.

Avstånd från stationen: NO 27kmESGG - Göteborg (Landvetter)
Uppdaterad: 2021-01-25 16:49
 
unable to load ESGG data RC=404 Not Found
unable to load ESGG data RC=404 Not Found
  Visa detaljer för Göteborg (Landvetter)
Avstånd från stationen: N 28kmESGP - Göteborg (Säve)
Uppdaterad: 2021-01-25 16:49
 
unable to load ESGP data RC=404 Not Found
unable to load ESGP data RC=404 Not Found
  Visa detaljer för Göteborg (Säve)
Avstånd från stationen: NO 419kmESSA - Stockholm (Arlanda)
Uppdaterad: 2021-01-25 16:49
 
unable to load ESSA data RC=404 Not Found
unable to load ESSA data RC=404 Not Found
  Visa detaljer för Stockholm (Arlanda)
Avstånd från stationen: ONO 404kmESSB - Stockholm (Bromma)
Uppdaterad: 2021-01-24 09:20
Ej aktuell
 Vind från calm
Vind: Vindstilla
Temperatur: -2°C
Daggpunkt: -2°C
Luftfuktighet: 100%
Barometer: 995 hPa
Moln: Klart
Sikt: 10 km
2021/01/24 08:20 ESSB 240820Z AUTO 00000KT 9999 NCD M02/M02 Q0995
Klart
Klart
  Visa detaljer för Stockholm (Bromma)
Avstånd från stationen: ONO 323kmESKN - Stockholm (Skavsta)
Uppdaterad: 2021-01-24 06:50
Ej aktuell
 Vind från VNV
Vind: VNV 7 km/h
Temperatur: -4°C
Vindavkylning: -7°C
Daggpunkt: -4°C
Luftfuktighet: 100%
Barometer: 994 hPa
Summering: Patches of Fog
Moln: Delvis molnigt
Sikt: 10 km
2021/01/24 05:50 ESKN 240550Z 30004KT 9999 BCFG NSC M04/M04 Q0994 R26/310195
Sporadisk dimma, Delvis molnigt
Sporadisk dimma
Delvis molnigt
  Visa detaljer för Stockholm (Skavsta)
Avstånd från stationen: SSO 238kmESMS - Malmö flygplats (Sturup)
Uppdaterad: 2021-01-24 08:20
Ej aktuell
 Vind från SO
Vind: SO 6 km/h
Temperatur: 0°C
Daggpunkt: 0°C
Luftfuktighet: 100%
Barometer: 996 hPa
Summering: Dimmigt
Moln: Genommulet
Sikt: 3 km
Molninformation: Genommulet 1372 m
2021/01/24 07:20 ESMS 240720Z 13003KT 2500 BR OVC045 00/M00 Q0996
Dimmigt, Genommulet
Dimmigt
Genommulet
  Visa detaljer för Malmö flygplats (Sturup)
Avstånd från stationen: O 382kmESSV - Visby flygplats
Uppdaterad: 2021-01-23 07:50
Ej aktuell
 Vind från SSV
Vind: SSV 28 km/h
Temperatur: 4°C
Vindavkylning: -1°C
Daggpunkt: 1°C
Luftfuktighet: 81%
Barometer: 994 hPa
Moln: Klart
Sikt: 10 km
2021/01/23 06:50 ESSV 230650Z AUTO 21015KT 9999 NCD 04/01 Q0994
Klart
Klart
  Visa detaljer för Visby flygplats
Avstånd från stationen: NNO 92kmESGT - Trollhättan
Uppdaterad: 2021-01-24 03:50
Ej aktuell
 Vind från SSO
Vind: SSO 9 km/h
Temperatur: -2°C
Vindavkylning: -6°C
Daggpunkt: -3°C
Luftfuktighet: 93%
Barometer: 994 hPa
Moln: Klart
Sikt: 10 km
2021/01/24 02:50 ESGT 240250Z AUTO 15005KT 9999 NCD M02/M03 Q0994
Klart
Klart
  Visa detaljer för Trollhättan
Avstånd från stationen: ONO 129kmESGJ - Jönköpings flygplats
Uppdaterad: 2021-01-24 05:50
Ej aktuell
 Vind från SSV
Vind: SSV 6 km/h
Temperatur: -2°C
Daggpunkt: -2°C
Luftfuktighet: 100%
Barometer: 994 hPa
Summering: Freezing Fog
Moln: Övervägande molnigt
Sikt: 0 km
Molninformation: Övervägande molnigt 61 m
2021/01/24 04:50 ESGJ 240450Z 20003KT 0150 R01/0650N R19/0450N FZFG BKN002 M02/M02 Q0994
Freezing fog, Övervägande molnigt
Freezing fog
Övervägande molnigt
  Visa detaljer för Jönköpings flygplats
Avstånd från stationen: NNO 229kmESOK - Karlstad
Uppdaterad: 2021-01-23 09:20
Ej aktuell
 Vind från SSV
Vind: SSV 26 km/h
Temperatur: 2°C
Vindavkylning: -3°C
Daggpunkt: 1°C
Luftfuktighet: 93%
Barometer: 986 hPa
Moln: Klart
Sikt: 10 km
2021/01/23 08:20 ESOK 230820Z AUTO 21014KT 9999 NCD 02/01 Q0986
Klart
Klart
  Visa detaljer för Karlstad
Avstånd från stationen: N 643kmESNZ - Östersund (Frösön)
Uppdaterad: 2021-01-24 07:50
Ej aktuell
 Vind från NNO
Vind: NNO 4 km/h
Temperatur: -10°C
Daggpunkt: -11°C
Luftfuktighet: 92%
Barometer: 991 hPa
Summering: Snö
Moln: Genommulet
Sikt: 0 km
Molninformation: Genommulet 183 m
2021/01/24 06:50 ESNZ 240650Z AUTO 02002KT 0400 R12/1300U R30/P1500N SN VV006 M10/M11 Q0991
Snö, Genommulet
Snö
Genommulet
  Visa detaljer för Östersund (Frösön)
Avstånd från stationen: SSO 216kmEKCH - Köpenhamn (Kastrup)
Uppdaterad: 2021-01-25 01:50
Ej aktuell
 Vind från SV
Vind: SV 7 km/h
Temperatur: 1°C
Vindavkylning: -2°C
Daggpunkt: 1°C
Luftfuktighet: 100%
Barometer: 997 hPa
Summering: Dimmigt
Moln: Övervägande molnigt
Sikt: 2 km
Molninformation: Delvis molnigt 183 m
Övervägande molnigt 244 m
2021/01/25 00:50 EKCH 250050Z 23004KT 1800 BR SCT006 BKN008 01/01 Q0997 TEMPO 1200 BKN004
Dimmigt, Övervägande molnigt
Dimmigt
Övervägande molnigt
  Visa detaljer för Köpenhamn (Kastrup)
Avstånd från stationen: SV 263kmEKBI - Billund Airport
Uppdaterad: 2021-01-25 01:50
Ej aktuell
 Vind från SV
Vind: SV 2 km/h
Temperatur: -2°C
Daggpunkt: -3°C
Luftfuktighet: 93%
Barometer: 997 hPa
Summering: Patches of Fog
Moln: Övervägande molnigt
Sikt: 1 km
Molninformation: Övervägande molnigt 3353 m
2021/01/25 00:50 EKBI 250050Z 23001KT 1100 R09/0800N R27/0650N BCFG BKN110 M02/M03 Q0997 R09/310195
Sporadisk dimma, Övervägande molnigt
Sporadisk dimma
Övervägande molnigt
  Visa detaljer för Billund Airport
Avstånd från stationen: N 302kmENGM - Oslo (Gardermoen)
Uppdaterad: 2021-01-25 01:50
Ej aktuell
 Vind från N
Vind: N 13 km/h
Temperatur: -5°C
Vindavkylning: -10°C
Daggpunkt: -6°C
Luftfuktighet: 93%
Barometer: 997 hPa
Summering: Light Snow
Moln: Övervägande molnigt
Sikt: 7 km
Molninformation: Några få moln 213 m
Övervägande molnigt 366 m
2021/01/25 00:50 ENGM 250050Z 01007KT 7000 -SN FEW007 BKN012 M05/M06 Q0997
Light snow, Övervägande molnigt
Light snow
Övervägande molnigt
  Visa detaljer för Oslo (Gardermoen)
Avstånd från stationen: NO 540kmEFMA - Mariehamn / Åland
Uppdaterad: 2021-01-25 01:50
Ej aktuell
 Vind från NNO
Vind: NNO 17 km/h
Temperatur: 1°C
Vindavkylning: -3°C
Daggpunkt: 0°C
Luftfuktighet: 93%
Barometer: 995 hPa
Moln: Genommulet
Sikt: 10 km
Molninformation: Genommulet 152 m
2021/01/25 00:50 EFMA 250050Z AUTO 02009KT 340V040 9999 OVC005 01/M00 Q0995
Genommulet
Genommulet
  Visa detaljer för Mariehamn / Åland
Avstånd från stationen: S 558kmEDDT - Berlin (Tegel), Germany
Uppdaterad: 2021-01-25 16:49
 
unable to load EDDT data RC=404 Not Found
unable to load EDDT data RC=404 Not Found
  Visa detaljer för Berlin (Tegel), Germany
Avstånd från stationen: SV 737kmEHAM - Amsterdam (Schiphol)
Uppdaterad: 2021-01-25 01:55
Ej aktuell
 Vind från NO
Vind: NO 7 km/h
Temperatur: 0°C
Vindavkylning: -3°C
Daggpunkt: -2°C
Luftfuktighet: 87%
Barometer: 998 hPa
Moln: Delvis molnigt
Sikt: 10 km
Molninformation: Delvis molnigt 1158 m
2021/01/25 00:55 EHAM 250055Z 04004KT 9999 SCT038 00/M02 Q0998 NOSIG
Delvis molnigt
Delvis molnigt
  Visa detaljer för Amsterdam (Schiphol)
Avstånd från stationen: ONO 808kmEFHK - Helsingfors (Vantaa)
Uppdaterad: 2021-01-25 01:50
Ej aktuell
 Vind från ONO
Vind: ONO 13 km/h
Temperatur: 0°C
Vindavkylning: -4°C
Daggpunkt: 0°C
Luftfuktighet: 100%
Barometer: 994 hPa
Summering: Light Snow
Moln: Genommulet
Sikt: 4 km
Molninformation: Genommulet 91 m
2021/01/25 00:50 EFHK 250050Z 06007KT 3500 -SN OVC003 00/00 Q0994 TEMPO 2000
Light snow, Genommulet
Light snow
Genommulet
  Visa detaljer för Helsingfors (Vantaa)
Avstånd från stationen: SSV 537kmEDDW - Bremen
Uppdaterad: 2021-01-25 01:50
Ej aktuell
 Vind från varierande
Vind: varierande 2 km/h
Temperatur: -2°C
Daggpunkt: -2°C
Luftfuktighet: 100%
Barometer: 999 hPa
Summering: Klart
Sikt: mer än 10 km
2021/01/25 00:50 EDDW 250050Z VRB01KT CAVOK M02/M02 Q0999
Klart
Klart
  Visa detaljer för Bremen
Avstånd från stationen: SSV 861kmEDDF - Frankfurt am Main
Uppdaterad: 2021-01-24 09:20
Ej aktuell
 Vind från SV
Vind: SV 33 km/h
Temperatur: 1°C
Vindavkylning: -6°C
Daggpunkt: 0°C
Luftfuktighet: 93%
Barometer: 996 hPa
Summering: Snö
Moln: Övervägande molnigt
Sikt: 4 km
Molninformation: Några få moln 152 m
Övervägande molnigt 213 m
Övervägande molnigt 366 m
2021/01/24 08:20 EDDF 240820Z 23018KT 4000 SN FEW005 BKN007 BKN012 01/M00 Q0996 R25C/691095 R25L/290095 R18/290095 BECMG 6000 -SN BKN012
Snö, Övervägande molnigt
Snö
Övervägande molnigt
  Visa detaljer för Frankfurt am Main
Avstånd från stationen: SV 880kmEBBR - Bryssel international
Uppdaterad: 2021-01-25 01:50
Ej aktuell
 Vind från S
Vind: S 4 km/h
Temperatur: 1°C
Daggpunkt: 0°C
Luftfuktighet: 93%
Barometer: 996 hPa
Moln: Övervägande molnigt
Sikt: 10 km
Molninformation: Några få moln 274 m
Övervägande molnigt 335 m
2021/01/25 00:50 EBBR 250050Z 19002KT 9999 FEW009 BKN011 01/00 Q0996 NOSIG
Övervägande molnigt
Övervägande molnigt
  Visa detaljer för Bryssel international
Avstånd från stationen: SV 738kmEHAM - Amsterdam (Schiphol)
Uppdaterad: 2021-01-25 01:55
Ej aktuell
 Vind från NO
Vind: NO 7 km/h
Temperatur: 0°C
Vindavkylning: -3°C
Daggpunkt: -2°C
Luftfuktighet: 87%
Barometer: 998 hPa
Moln: Delvis molnigt
Sikt: 10 km
Molninformation: Delvis molnigt 1158 m
2021/01/25 00:55 EHAM 250055Z 04004KT 9999 SCT038 00/M02 Q0998 NOSIG
Delvis molnigt
Delvis molnigt
  Visa detaljer för Amsterdam (Schiphol)
Avstånd från stationen: SV 1044kmEGLL - London (Heathrow)
Uppdaterad: 2021-01-25 01:50
Ej aktuell
 Vind från N
Vind: N 11 km/h
Temperatur: 1°C
Vindavkylning: -2°C
Daggpunkt: 0°C
Luftfuktighet: 93%
Barometer: 1001 hPa
Moln: Några få moln
Sikt: 10 km
Molninformation: Några få moln 610 m
2021/01/25 00:50 EGLL 250050Z AUTO 36006KT 320V020 9999 FEW020 01/M00 Q1001 NOSIG
Några få moln
Några få moln
  Visa detaljer för London (Heathrow)
Avstånd från stationen: SV 1132kmLFPG - Paris (Charles de Gaulle)
Uppdaterad: 2021-01-24 09:30
Ej aktuell
 Vind från S
Vind: S 11 km/h
Temperatur: 0°C
Vindavkylning: -4°C
Daggpunkt: -1°C
Luftfuktighet: 93%
Barometer: 1003 hPa
Summering: Klart
Sikt: mer än 10 km
2021/01/24 08:30 LFPG 240830Z 17006KT CAVOK 00/M01 Q1003 NOSIG
Klart
Klart
  Visa detaljer för Paris (Charles de Gaulle)
Avstånd från stationen: SSV 1142kmLSZH - Zürich Airport
Uppdaterad: 2021-01-25 01:50
Ej aktuell
 Vind från S
Vind: S 13 km/h
Temperatur: 0°C
Vindavkylning: -4°C
Daggpunkt: -1°C
Luftfuktighet: 93%
Barometer: 999 hPa
Summering: Light Snow
Moln: Övervägande molnigt
Sikt: 4 km
Molninformation: Några få moln 183 m
Delvis molnigt 549 m
Övervägande molnigt 1067 m
2021/01/25 00:50 LSZH 250050Z 18007KT 3800 -SN FEW006 SCT018 BKN035 M00/M01 Q0999 TEMPO 2000 SN BKN012
Light snow, Övervägande molnigt
Light snow
Övervägande molnigt
  Visa detaljer för Zürich Airport
Avstånd från stationen: S 1749kmLIRF - Rome Airport (Fiumicino - Leonardo da Vinci)
Uppdaterad: 2021-01-25 01:50
Ej aktuell
 Vind från O
Vind: O 13 km/h
Temperatur: 2°C
Vindavkylning: -1°C
Daggpunkt: 1°C
Luftfuktighet: 93%
Barometer: 1006 hPa
Summering: Klart
Sikt: mer än 10 km
2021/01/25 00:50 LIRF 250050Z 08007KT CAVOK 02/01 Q1006 NOSIG
Klart
Klart
  Visa detaljer för Rome Airport (Fiumicino - Leonardo da Vinci)
Avstånd från stationen: SO 2679kmLTAI - Antalya
Uppdaterad: 2021-01-25 01:50
Ej aktuell
 Vind från O
Vind: O 9 km/h
Temperatur: 10°C
Vindavkylning: 9°C
Daggpunkt: 9°C
Luftfuktighet: 94%
Barometer: 1020 hPa
Moln: Övervägande molnigt
Sikt: 10 km
Molninformation: Några få moln 610 m
Övervägande molnigt 914 m
2021/01/25 00:50 LTAI 250050Z 08005KT 040V110 9999 FEW020CB BKN030 10/09 Q1020 NOSIG
Övervägande molnigt
Övervägande molnigt
  Visa detaljer för Antalya
Avstånd från stationen: VSV 6074kmKJFK - New Your (JFK)
Uppdaterad: 2021-01-25 01:51
Ej aktuell
 Vind från NV
Vind: NV 24 km/h
Temperatur: -1°C
Vindavkylning: -7°C
Daggpunkt: -14°C
Luftfuktighet: 37%
Barometer: 1021 hPa
Moln: Övervägande molnigt
Sikt: 16 km
Molninformation: Delvis molnigt 4572 m
Övervägande molnigt 7620 m
2021/01/25 00:51 KJFK 250051Z 32013KT 10SM SCT150 BKN250 M01/M14 A3015 RMK AO2 SLP209 T10111144
Övervägande molnigt
Övervägande molnigt
  Visa detaljer för New Your (JFK)
Avstånd från stationen: VSV 8848kmKLAX - Los Angeles International Airport
Uppdaterad: 2021-01-25 01:53
Ej aktuell
 Vind från VSV
Vind: VSV 7 km/h
Temperatur: 13°C
Daggpunkt: 4°C
Luftfuktighet: 55%
Barometer: 1012.2 hPa
Moln: Delvis molnigt
Sikt: 16 km
Molninformation: Några få moln 1158 m
Delvis molnigt 1981 m
Delvis molnigt 4572 m
2021/01/25 00:53 KLAX 250053Z COR 24004KT 10SM FEW038 SCT065 SCT150 13/04 A2989 RMK AO2 SLP122 T01280044
Delvis molnigt
Delvis molnigt
  Visa detaljer för Los Angeles International Airport
Avstånd från stationen: SO 4968kmOMDB - Dubai International Airport
Uppdaterad: 2021-01-25 02:00
Ej aktuell
 Vind från S
Vind: S 4 km/h
Temperatur: 16°C
Daggpunkt: 8°C
Luftfuktighet: 59%
Barometer: 1018 hPa
Moln: Några få moln
Sikt: 10 km
Molninformation: Några få moln 914 m
2021/01/25 01:00 OMDB 250100Z 18002KT 9999 FEW030 16/08 Q1018 NOSIG
Några få moln
Några få moln
  Visa detaljer för Dubai International Airport
Avstånd från stationen: OSO 8570kmRJTT - Tokyo International Airport
Uppdaterad: 2021-01-24 09:30
Ej aktuell
 Vind från N
Vind: N 35 km/h
Temperatur: 7°C
Vindavkylning: 3°C
Daggpunkt: 5°C
Luftfuktighet: 87%
Barometer: 1019 hPa
Summering: Lätt regn
Moln: Övervägande molnigt
Sikt: 10 km
Molninformation: Några få moln 457 m
Övervägande molnigt 610 m
Övervägande molnigt 1829 m
2021/01/24 08:30 RJTT 240830Z 35019KT 9999 -RA FEW015 BKN020 BKN060 07/05 Q1019 NOSIG
Lätt regn, Övervägande molnigt
Lätt regn
Övervägande molnigt
  Visa detaljer för Tokyo International Airport
Avstånd från stationen: OSO 7125kmZBAA - Peking (Beijing Capital)
Uppdaterad: 2021-01-24 15:30
Ej aktuell
 Vind från varierande
Vind: varierande 4 km/h
Temperatur: -3°C
Daggpunkt: -8°C
Luftfuktighet: 69%
Barometer: 1028 hPa
Moln: Delvis molnigt
Sikt: 7 km
2021/01/24 14:30 ZBAA 241430Z VRB01MPS 7000 NSC M03/M08 Q1028 NOSIG
Delvis molnigt
Delvis molnigt
  Visa detaljer för Peking (Beijing Capital)
VÄDER KURIOSA -  Cloud BaseThe cloud base is the distance from the sea level to the base of the clouds. It is estimated using the current temperature and humidity to indicate an altitude where the air could be cold enough for clouds to form. There may or may not be clouds at that altitude (or at any altitude)